Time;durP1;ratioP1;P1;durP2;ratioP2;P2;SDS_P1;SDS_P2;PMS_P1;PMS_P2;Temp;Humidity;BMP_temperature;BMP_pressure;BME280_temperature;BME280_humidity;BME280_pressure;Samples;Min_cycle;Max_cycle;Signal;HPM_P1;HPM_P2
2022/03/29 00:01:29;;;;;;;32.58;15.70;;;16.50;57.60;;;;;;5120053;27;20501;-60
2022/03/29 00:03:55;;;;;;;38.25;15.25;;;16.50;57.50;;;;;;5103633;27;20142;-59
2022/03/29 00:06:20;;;;;;;37.30;15.73;;;16.40;57.40;;;;;;5121603;27;20114;-60
2022/03/29 00:08:46;;;;;;;30.33;15.10;;;16.40;57.50;;;;;;5102764;27;20095;-60
2022/03/29 00:11:12;;;;;;;43.55;15.73;;;16.40;57.50;;;;;;5104538;27;20110;-60
2022/03/29 00:13:38;;;;;;;30.45;15.30;;;16.40;57.60;;;;;;5103578;27;20043;-60
2022/03/29 00:16:03;;;;;;;38.38;14.85;;;16.40;57.60;;;;;;5120926;27;20109;-60
2022/03/29 00:18:29;;;;;;;35.00;15.50;;;16.30;57.60;;;;;;5122379;27;20045;-60
2022/03/29 00:20:54;;;;;;;42.63;15.57;;;16.30;57.60;;;;;;5096681;27;20489;-60
2022/03/29 00:23:20;;;;;;;36.28;15.77;;;16.30;57.60;;;;;;5100312;27;20031;-60
2022/03/29 00:25:45;;;;;;;43.13;16.20;;;16.30;57.70;;;;;;5119603;27;20019;-60
2022/03/29 00:28:11;;;;;;;37.78;16.55;;;16.30;57.70;;;;;;5117860;27;20079;-60
2022/03/29 00:30:36;;;;;;;36.20;17.88;;;16.20;57.70;;;;;;5106037;27;20046;-60
2022/03/29 00:33:02;;;;;;;34.17;16.77;;;16.20;57.70;;;;;;5087365;28;20466;-60
2022/03/29 00:35:28;;;;;;;35.42;16.20;;;16.00;57.70;;;;;;5099586;28;20027;-60
2022/03/29 00:37:53;;;;;;;42.35;16.50;;;16.20;57.90;;;;;;5097654;27;20039;-60
2022/03/29 00:40:19;;;;;;;30.13;15.30;;;16.10;57.90;;;;;;5105339;27;20509;-60
2022/03/29 00:42:45;;;;;;;41.47;15.85;;;16.10;57.80;;;;;;5078137;28;20104;-60
2022/03/29 00:45:10;;;;;;;40.08;15.52;;;16.10;57.90;;;;;;5082170;28;20063;-60
2022/03/29 00:47:36;;;;;;;34.47;16.40;;;16.10;57.80;;;;;;5078670;28;20055;-60
2022/03/29 00:50:02;;;;;;;29.33;14.55;;;16.10;57.80;;;;;;5099407;28;20085;-60
2022/03/29 00:52:27;;;;;;;26.17;13.40;;;16.10;57.90;;;;;;5084223;27;20024;-60
2022/03/29 00:54:53;;;;;;;28.35;14.10;;;16.00;57.90;;;;;;5078294;28;20036;-60
2022/03/29 00:57:19;;;;;;;22.52;14.32;;;16.00;58.00;;;;;;5098894;28;20032;-60
2022/03/29 00:59:46;;;;;;;26.63;13.77;;;16.00;58.00;;;;;;5081843;28;20046;-59
2022/03/29 01:02:11;;;;;;;27.13;13.88;;;15.90;58.00;;;;;;5103572;27;20089;-60
2022/03/29 01:04:37;;;;;;;29.02;13.88;;;15.90;58.10;;;;;;5063102;28;20044;-60
2022/03/29 01:07:02;;;;;;;26.50;13.55;;;15.90;58.10;;;;;;5081890;28;20492;-60
2022/03/29 01:09:29;;;;;;;27.02;14.25;;;15.80;58.10;;;;;;5082917;28;20031;-60
2022/03/29 01:11:56;;;;;;;27.92;14.23;;;15.80;58.10;;;;;;5079514;28;20027;-60
2022/03/29 01:14:22;;;;;;;30.63;15.02;;;15.80;58.20;;;;;;5079806;28;20043;-60
2022/03/29 01:19:31;;;;;;;28.98;14.98;;;15.70;58.30;;;;;;5081473;28;20085;-59
2022/03/29 01:22:03;;;;;;;29.77;15.00;;;15.70;58.40;;;;;;5098975;28;20035;-60
2022/03/29 01:24:29;;;;;;;21.55;14.13;;;15.70;58.40;;;;;;5082423;28;20054;-60
2022/03/29 01:26:59;;;;;;;32.08;14.27;;;15.60;58.40;;;;;;5096312;28;20036;-60
2022/03/29 01:29:24;;;;;;;27.15;14.43;;;15.60;58.50;;;;;;5099192;27;20019;-60
2022/03/29 01:31:50;;;;;;;29.73;13.85;;;15.60;58.50;;;;;;5120700;27;20164;-60
2022/03/29 01:34:17;;;;;;;24.55;13.15;;;15.60;58.60;;;;;;5085964;28;20039;-60
2022/03/29 01:36:42;;;;;;;24.25;13.55;;;15.60;58.60;;;;;;5102413;28;20057;-60
2022/03/29 01:39:08;;;;;;;28.92;13.50;;;15.60;58.70;;;;;;5099823;28;20514;-60
2022/03/29 01:41:33;;;;;;;25.02;13.10;;;15.50;58.70;;;;;;5115556;28;20535;-60
2022/03/29 01:43:59;;;;;;;28.48;12.73;;;15.50;58.70;;;;;;5096353;28;20035;-60
2022/03/29 01:46:25;;;;;;;25.38;13.65;;;15.50;58.70;;;;;;5113634;28;20119;-59
2022/03/29 01:48:50;;;;;;;20.58;12.88;;;15.50;58.80;;;;;;5111818;28;20160;-60
2022/03/29 01:51:16;;;;;;;22.48;13.57;;;15.40;58.70;;;;;;5080670;28;20114;-60
2022/03/29 01:53:41;;;;;;;21.27;12.43;;;15.40;58.80;;;;;;5097240;28;20462;-60
2022/03/29 01:56:07;;;;;;;24.63;13.98;;;15.40;58.80;;;;;;5101283;28;20035;-60
2022/03/29 01:58:32;;;;;;;20.38;12.80;;;15.40;58.90;;;;;;5099786;28;20472;-60
2022/03/29 02:00:58;;;;;;;21.40;13.38;;;15.40;59.00;;;;;;5093184;28;20480;-60
2022/03/29 02:03:24;;;;;;;23.77;14.13;;;15.30;59.00;;;;;;5085136;28;20665;-59
2022/03/29 02:05:49;;;;;;;25.23;13.55;;;15.30;59.00;;;;;;5097614;28;20015;-60
2022/03/29 02:08:16;;;;;;;26.60;13.60;;;15.30;59.10;;;;;;5107100;27;20197;-59
2022/03/29 02:10:42;;;;;;;23.10;13.73;;;15.30;59.10;;;;;;5112419;27;20026;-60
2022/03/29 02:13:09;;;;;;;22.25;13.00;;;15.20;59.10;;;;;;5107186;27;20424;-60
2022/03/29 02:15:37;;;;;;;27.73;15.00;;;15.20;59.80;;;;;;5089925;28;20059;-60
2022/03/29 02:18:03;;;;;;;22.73;14.43;;;15.20;59.30;;;;;;5115043;27;20028;-60
2022/03/29 02:20:29;;;;;;;22.27;14.10;;;15.20;59.30;;;;;;5104961;27;20030;-60
2022/03/29 02:22:55;;;;;;;21.48;13.40;;;15.10;59.30;;;;;;5113680;27;20027;-60
2022/03/29 02:25:21;;;;;;;25.30;13.48;;;15.10;59.40;;;;;;5121072;27;20019;-60
2022/03/29 02:27:46;;;;;;;21.80;14.02;;;15.20;59.40;;;;;;5104540;27;20409;-60
2022/03/29 02:30:14;;;;;;;19.17;13.35;;;15.10;59.30;;;;;;5102881;27;20058;-60
2022/03/29 02:32:39;;;;;;;18.58;13.30;;;15.10;59.30;;;;;;5104078;27;20034;-60
2022/03/29 02:35:06;;;;;;;17.40;13.27;;;15.10;59.40;;;;;;5059230;28;20036;-60
2022/03/29 02:37:31;;;;;;;22.25;13.40;;;15.00;59.40;;;;;;5107017;27;20301;-60
2022/03/29 02:39:57;;;;;;;22.42;13.05;;;15.00;59.50;;;;;;5113280;27;20811;-59
2022/03/29 02:42:22;;;;;;;19.60;12.77;;;15.00;59.50;;;;;;5098742;27;20043;-60
2022/03/29 02:44:48;;;;;;;17.27;13.25;;;14.90;59.70;;;;;;5117888;27;20058;-59
2022/03/29 02:47:13;;;;;;;17.75;11.68;;;15.00;59.60;;;;;;5090603;27;20115;-60
2022/03/29 02:49:39;;;;;;;23.98;13.07;;;15.00;59.60;;;;;;5091614;28;20467;-59
2022/03/29 02:52:05;;;;;;;17.92;11.93;;;14.90;59.60;;;;;;5103948;27;20529;-60
2022/03/29 02:54:30;;;;;;;19.60;12.10;;;14.90;59.60;;;;;;5100481;28;20035;-59
2022/03/29 02:56:56;;;;;;;17.25;11.38;;;14.90;59.70;;;;;;5108779;27;20022;-60
2022/03/29 02:59:21;;;;;;;17.58;12.13;;;14.80;59.70;;;;;;5110594;27;20032;-59
2022/03/29 03:01:47;;;;;;;19.65;13.00;;;14.80;59.80;;;;;;5114579;27;20023;-59
2022/03/29 03:04:13;;;;;;;15.70;11.85;;;14.80;59.80;;;;;;5118045;27;20505;-60
2022/03/29 03:06:40;;;;;;;21.10;12.55;;;14.80;59.80;;;;;;5115907;27;20151;-60
2022/03/29 03:09:06;;;;;;;17.42;11.45;;;14.80;59.80;;;;;;5121766;27;20041;-60
2022/03/29 03:11:31;;;;;;;18.73;12.57;;;14.80;59.90;;;;;;5093684;27;20415;-60
2022/03/29 03:13:57;;;;;;;18.13;11.85;;;14.70;59.80;;;;;;5120039;27;20051;-60
2022/03/29 03:16:22;;;;;;;20.35;11.68;;;14.70;59.90;;;;;;5113295;27;20027;-60
2022/03/29 03:18:48;;;;;;;18.63;11.55;;;14.70;59.90;;;;;;5100095;27;20486;-60
2022/03/29 03:21:13;;;;;;;15.85;11.57;;;14.70;59.90;;;;;;5090192;27;20118;-60
2022/03/29 03:23:39;;;;;;;16.00;11.77;;;14.70;59.90;;;;;;5111867;27;20036;-60
2022/03/29 03:26:04;;;;;;;15.18;11.32;;;14.70;59.90;;;;;;5117065;27;20483;-60
2022/03/29 03:28:30;;;;;;;21.73;11.50;;;14.60;59.90;;;;;;5094950;27;20113;-61
2022/03/29 03:30:55;;;;;;;16.55;11.60;;;14.60;59.90;;;;;;5102969;27;20107;-59
2022/03/29 03:33:21;;;;;;;15.85;10.80;;;14.60;59.90;;;;;;5110466;27;20047;-60
2022/03/29 03:35:47;;;;;;;15.38;11.13;;;14.50;60.00;;;;;;5108315;27;20027;-60
2022/03/29 03:38:12;;;;;;;16.92;11.68;;;14.60;60.00;;;;;;5102796;27;20047;-60
2022/03/29 03:40:38;;;;;;;16.70;11.52;;;14.50;60.30;;;;;;5101607;27;20257;-59
2022/03/29 03:43:03;;;;;;;15.40;10.23;;;14.50;60.00;;;;;;5121127;27;20545;-60
2022/03/29 03:45:29;;;;;;;19.10;11.18;;;14.50;60.10;;;;;;5082264;27;20043;-60
2022/03/29 03:47:55;;;;;;;19.25;12.43;;;14.50;60.10;;;;;;5098417;27;20062;-60
2022/03/29 03:50:20;;;;;;;18.70;11.90;;;14.40;60.10;;;;;;5110516;27;20039;-60
2022/03/29 03:52:46;;;;;;;19.30;11.75;;;14.40;60.10;;;;;;5085319;28;20177;-60
2022/03/29 03:55:11;;;;;;;18.45;10.70;;;14.40;60.20;;;;;;5107610;27;20031;-59
2022/03/29 03:57:37;;;;;;;22.33;11.02;;;14.40;60.20;;;;;;5092585;27;20035;-60
2022/03/29 04:00:04;;;;;;;19.98;11.35;;;14.40;60.20;;;;;;5119457;27;20043;-60
2022/03/29 04:02:30;;;;;;;28.25;11.75;;;14.40;60.20;;;;;;5119117;27;20520;-60
2022/03/29 04:04:55;;;;;;;50.58;12.75;;;14.40;60.30;;;;;;5091018;27;20060;-60
2022/03/29 04:07:21;;;;;;;42.45;13.55;;;14.40;60.20;;;;;;5122472;27;20106;-60
2022/03/29 04:09:46;;;;;;;49.40;14.35;;;14.30;60.20;;;;;;5121741;27;20042;-61
2022/03/29 04:12:12;;;;;;;43.17;15.02;;;14.30;60.20;;;;;;5112295;27;20047;-59
2022/03/29 04:14:37;;;;;;;53.20;16.58;;;14.30;60.30;;;;;;5117209;27;20107;-60
2022/03/29 04:17:06;;;;;;;40.08;15.23;;;14.30;60.30;;;;;;5106668;27;20058;-60
2022/03/29 04:19:32;;;;;;;43.28;15.02;;;14.30;60.30;;;;;;5103370;27;20015;-59
2022/03/29 04:21:57;;;;;;;51.20;14.35;;;14.30;60.20;;;;;;5102693;27;20429;-60
2022/03/29 04:24:23;;;;;;;50.08;14.77;;;14.20;60.30;;;;;;5112563;27;20415;-60
2022/03/29 04:26:48;;;;;;;49.75;14.35;;;14.20;60.30;;;;;;5115279;27;21239;-60
2022/03/29 04:29:14;;;;;;;46.70;14.38;;;14.20;60.30;;;;;;5119553;27;20031;-59
2022/03/29 04:31:40;;;;;;;43.58;13.45;;;14.20;60.30;;;;;;5100381;27;20056;-60
2022/03/29 04:34:05;;;;;;;60.63;14.80;;;14.20;60.40;;;;;;5121243;27;20045;-60
2022/03/29 04:36:31;;;;;;;47.70;13.90;;;14.20;60.30;;;;;;5073807;27;20031;-59
2022/03/29 04:38:57;;;;;;;41.50;14.50;;;14.20;60.20;;;;;;5096124;27;20149;-59
2022/03/29 04:41:23;;;;;;;44.75;14.18;;;14.20;60.30;;;;;;5100974;27;20023;-60
2022/03/29 04:43:49;;;;;;;39.67;13.25;;;14.20;60.40;;;;;;5079056;28;20180;-60
2022/03/29 04:46:14;;;;;;;31.75;13.80;;;14.10;60.30;;;;;;5101829;27;20127;-60
2022/03/29 04:48:40;;;;;;;39.33;13.20;;;14.10;60.40;;;;;;5107536;27;20114;-61
2022/03/29 04:51:06;;;;;;;37.92;12.95;;;14.10;61.10;;;;;;5075774;27;20028;-60
2022/03/29 04:53:32;;;;;;;41.60;12.73;;;14.10;60.40;;;;;;5118047;27;20011;-60
2022/03/29 04:55:57;;;;;;;42.60;13.10;;;14.10;60.40;;;;;;5069779;28;20054;-60
2022/03/29 04:58:24;;;;;;;31.20;12.15;;;14.10;60.50;;;;;;5079629;27;20142;-60
2022/03/29 05:00:49;;;;;;;39.58;13.18;;;14.10;60.50;;;;;;5094461;28;20047;-59
2022/03/29 05:03:15;;;;;;;35.15;13.30;;;14.00;60.40;;;;;;5099636;27;20088;-60
2022/03/29 05:05:40;;;;;;;47.45;13.00;;;14.00;60.40;;;;;;5108832;27;20526;-61
2022/03/29 05:08:07;;;;;;;34.95;12.85;;;14.00;60.40;;;;;;5110687;27;20028;-60
2022/03/29 05:10:32;;;;;;;34.22;12.15;;;14.10;60.40;;;;;;5109334;27;20080;-59
2022/03/29 05:12:58;;;;;;;39.63;12.82;;;14.00;60.40;;;;;;5083151;28;20028;-60
2022/03/29 05:15:23;;;;;;;33.58;12.43;;;14.00;60.50;;;;;;5111675;27;20141;-60
2022/03/29 05:17:49;;;;;;;30.95;12.45;;;14.00;60.40;;;;;;5071032;28;20336;-60
2022/03/29 05:20:15;;;;;;;29.88;12.63;;;14.00;60.50;;;;;;5098195;27;20099;-60
2022/03/29 05:22:48;;;;;;;30.40;11.77;;;14.00;60.60;;;;;;5115613;27;20043;-60
2022/03/29 05:25:14;;;;;;;39.20;12.23;;;13.90;60.60;;;;;;5099068;27;20339;-60
2022/03/29 05:27:40;;;;;;;35.00;12.30;;;13.90;60.70;;;;;;5093036;27;20168;-60
2022/03/29 05:30:06;;;;;;;26.33;11.38;;;13.90;60.80;;;;;;5084248;28;20507;-60
2022/03/29 05:32:32;;;;;;;27.08;12.10;;;13.90;61.10;;;;;;5080743;28;20127;-60
2022/03/29 05:34:57;;;;;;;39.58;12.13;;;13.90;61.00;;;;;;5098635;28;20115;-60
2022/03/29 05:37:23;;;;;;;25.27;11.55;;;13.90;61.00;;;;;;5108564;28;20039;-59
2022/03/29 05:39:48;;;;;;;32.85;11.85;;;13.90;61.10;;;;;;5092238;28;20427;-60
2022/03/29 05:42:14;;;;;;;38.05;12.68;;;13.90;61.10;;;;;;5107263;27;20039;-60
2022/03/29 05:44:39;;;;;;;27.77;11.40;;;13.90;61.10;;;;;;5121824;27;20164;-60
2022/03/29 05:49:50;;;;;;;31.10;11.90;;;13.90;61.20;;;;;;5109601;27;20042;-60
2022/03/29 05:52:15;;;;;;;34.83;12.23;;;13.90;61.10;;;;;;5091243;27;20466;-60
2022/03/29 05:54:44;;;;;;;26.02;11.13;;;13.90;61.20;;;;;;5088256;27;20094;-60
2022/03/29 05:57:13;;;;;;;35.00;12.27;;;13.90;61.30;;;;;;5105496;27;20026;-59
2022/03/29 05:59:38;;;;;;;25.80;11.27;;;13.80;61.20;;;;;;5118330;27;20035;-60
2022/03/29 06:02:04;;;;;;;23.25;11.10;;;13.80;61.20;;;;;;5100348;27;20092;-59
2022/03/29 06:04:36;;;;;;;24.92;11.15;;;13.80;61.20;;;;;;5114123;27;20429;-59
2022/03/29 06:07:04;;;;;;;29.05;11.82;;;13.80;61.10;;;;;;5099835;27;20487;-60
2022/03/29 06:09:30;;;;;;;18.00;11.13;;;13.80;61.20;;;;;;5098210;27;20096;-60
2022/03/29 06:11:55;;;;;;;26.38;11.10;;;13.80;61.10;;;;;;5097590;27;20043;-60
2022/03/29 06:14:21;;;;;;;23.80;11.40;;;13.80;61.10;;;;;;5109497;27;20372;-60
2022/03/29 06:16:46;;;;;;;25.55;10.52;;;13.80;61.10;;;;;;5086610;28;20066;-59
2022/03/29 06:19:12;;;;;;;30.02;11.55;;;13.80;61.10;;;;;;5103151;27;20035;-60
2022/03/29 06:21:38;;;;;;;30.65;11.63;;;13.80;61.10;;;;;;5098741;27;20038;-60
2022/03/29 06:24:04;;;;;;;24.00;10.63;;;13.80;61.10;;;;;;5117313;27;20127;-60
2022/03/29 06:26:30;;;;;;;23.13;10.25;;;13.80;61.10;;;;;;5096143;27;20023;-60
2022/03/29 06:28:56;;;;;;;32.85;12.15;;;13.80;61.10;;;;;;5113708;27;20149;-60
2022/03/29 06:31:22;;;;;;;28.95;11.27;;;13.80;61.10;;;;;;5104904;27;20048;-60
2022/03/29 06:33:47;;;;;;;20.75;11.30;;;13.90;61.10;;;;;;5106620;27;20129;-60
2022/03/29 06:36:13;;;;;;;25.23;11.40;;;13.80;61.10;;;;;;5118990;27;20027;-60
2022/03/29 06:38:38;;;;;;;20.60;10.88;;;13.80;61.10;;;;;;5101246;28;20072;-60
2022/03/29 06:41:05;;;;;;;23.40;10.45;;;13.80;61.10;;;;;;5087046;27;20385;-59
2022/03/29 06:43:30;;;;;;;24.67;10.75;;;13.90;61.10;;;;;;5091051;27;20045;-60
2022/03/29 06:45:56;;;;;;;29.10;10.93;;;13.90;61.10;;;;;;5096728;27;20751;-60
2022/03/29 06:48:23;;;;;;;21.88;10.93;;;13.90;61.20;;;;;;5092099;27;20044;-60
2022/03/29 06:50:48;;;;;;;21.48;10.73;;;13.90;61.10;;;;;;5115847;27;20028;-59
2022/03/29 06:53:14;;;;;;;24.35;11.50;;;13.80;61.10;;;;;;5076752;27;20487;-60
2022/03/29 06:55:39;;;;;;;22.60;9.90;;;13.90;61.20;;;;;;5067531;28;20047;-60
2022/03/29 06:58:05;;;;;;;27.73;12.18;;;13.90;61.20;;;;;;5115300;27;20022;-61
2022/03/29 07:00:30;;;;;;;26.98;10.73;;;13.90;61.70;;;;;;5110262;27;20039;-60
2022/03/29 07:02:56;;;;;;;33.25;11.30;;;13.90;61.80;;;;;;5059943;27;20560;-61
2022/03/29 07:05:22;;;;;;;33.53;12.23;;;13.90;61.70;;;;;;5088910;27;20662;-60
2022/03/29 07:07:47;;;;;;;50.20;12.00;;;14.00;61.80;;;;;;5100131;27;20031;-59
2022/03/29 07:12:59;;;;;;;39.13;11.82;;;13.90;61.90;;;;;;5109652;27;20093;-59
2022/03/29 07:15:25;;;;;;;38.83;11.88;;;14.00;61.90;;;;;;5107579;27;20023;-60
2022/03/29 07:17:51;;;;;;;39.20;11.82;;;14.00;61.80;;;;;;5084251;28;20408;-60
2022/03/29 07:20:17;;;;;;;37.75;12.05;;;14.00;61.80;;;;;;5104273;27;20118;-60
2022/03/29 07:22:43;;;;;;;34.08;12.68;;;14.00;61.80;;;;;;5080639;28;20043;-60
2022/03/29 07:25:09;;;;;;;47.42;13.25;;;14.00;61.80;;;;;;5104627;27;20039;-61
2022/03/29 07:27:34;;;;;;;46.70;13.60;;;14.00;61.90;;;;;;5100484;27;20044;-60
2022/03/29 07:30:00;;;;;;;53.50;12.88;;;14.10;62.10;;;;;;5111510;27;20075;-60
2022/03/29 07:32:27;;;;;;;33.80;12.85;;;14.10;62.00;;;;;;5117958;27;20015;-60
2022/03/29 07:34:54;;;;;;;53.42;14.35;;;14.10;62.00;;;;;;5099146;27;20576;-60
2022/03/29 07:37:20;;;;;;;39.70;14.10;;;14.10;62.20;;;;;;5099968;27;20023;-60
2022/03/29 07:39:46;;;;;;;46.03;13.63;;;14.10;62.10;;;;;;5109912;27;20160;-60
2022/03/29 07:42:12;;;;;;;62.83;14.60;;;14.10;61.90;;;;;;5100060;27;20038;-60
2022/03/29 07:44:37;;;;;;;51.10;14.15;;;14.10;62.00;;;;;;5110306;27;20283;-60
2022/03/29 07:47:03;;;;;;;58.38;13.65;;;14.10;62.20;;;;;;5114098;27;20043;-60
2022/03/29 07:49:29;;;;;;;44.58;13.05;;;14.20;62.20;;;;;;5097732;27;20035;-59
2022/03/29 07:51:56;;;;;;;40.50;13.27;;;14.20;62.30;;;;;;5111202;27;20072;-60
2022/03/29 07:54:21;;;;;;;39.25;13.63;;;14.20;62.00;;;;;;5099824;27;20023;-60
2022/03/29 07:56:47;;;;;;;52.85;13.05;;;14.30;61.80;;;;;;5116948;27;20027;-60
2022/03/29 07:59:13;;;;;;;50.65;12.57;;;14.30;61.70;;;;;;5118570;27;20031;-60
2022/03/29 08:01:38;;;;;;;52.92;14.05;;;14.30;61.70;;;;;;5112897;27;20099;-60
2022/03/29 08:04:04;;;;;;;47.50;13.60;;;14.30;61.70;;;;;;5105087;27;20024;-60
2022/03/29 08:06:30;;;;;;;43.95;12.20;;;14.30;61.70;;;;;;5097481;27;20073;-60
2022/03/29 08:08:56;;;;;;;38.55;11.45;;;14.30;61.70;;;;;;5082352;28;20182;-60
2022/03/29 08:11:24;;;;;;;39.42;12.65;;;14.30;61.80;;;;;;5093037;27;20458;-60
2022/03/29 08:13:50;;;;;;;39.80;12.57;;;14.30;61.90;;;;;;5072603;27;20043;-60
2022/03/29 08:16:16;;;;;;;43.63;13.43;;;14.40;61.90;;;;;;5081467;27;20130;-61
2022/03/29 08:18:42;;;;;;;40.67;13.27;;;14.30;61.70;;;;;;5093389;27;20024;-60
2022/03/29 08:23:52;;;;;;;43.20;12.70;;;14.40;61.70;;;;;;5088066;28;20414;-59
2022/03/29 08:26:18;;;;;;;37.00;12.68;;;14.40;61.60;;;;;;5079835;28;20019;-60
2022/03/29 08:28:43;;;;;;;44.63;13.18;;;14.40;62.20;;;;;;5084339;27;20039;-60
2022/03/29 08:31:09;;;;;;;43.75;13.23;;;14.50;61.70;;;;;;5106689;27;20161;-60
2022/03/29 08:33:34;;;;;;;51.33;14.25;;;14.50;61.80;;;;;;5104174;27;20378;-60
2022/03/29 08:36:00;;;;;;;50.05;13.25;;;14.50;61.80;;;;;;5117480;27;20030;-60
2022/03/29 08:38:27;;;;;;;55.58;13.60;;;14.60;61.70;;;;;;5081061;27;20034;-60
2022/03/29 08:40:57;;;;;;;61.80;13.98;;;14.60;61.80;;;;;;5094418;27;20138;-60
2022/03/29 08:43:27;;;;;;;48.13;12.65;;;14.60;61.70;;;;;;5074619;28;20050;-60
2022/03/29 08:45:53;;;;;;;47.88;12.13;;;14.60;61.70;;;;;;5059625;28;20070;-60
2022/03/29 08:48:22;;;;;;;39.10;12.52;;;14.70;61.60;;;;;;5084202;27;20074;-60
2022/03/29 08:50:47;;;;;;;44.95;13.20;;;14.70;61.60;;;;;;5099472;27;20030;-60
2022/03/29 08:53:17;;;;;;;48.20;14.05;;;14.70;61.50;;;;;;5084573;27;20027;-60
2022/03/29 08:55:44;;;;;;;41.55;12.63;;;14.70;61.50;;;;;;5087513;28;20049;-60
2022/03/29 08:58:10;;;;;;;50.70;12.60;;;14.80;61.50;;;;;;5111043;27;20031;-60
2022/03/29 09:00:36;;;;;;;45.45;12.55;;;14.80;61.50;;;;;;5093747;27;20057;-60
2022/03/29 09:03:01;;;;;;;52.35;12.77;;;14.80;61.50;;;;;;5077319;28;20023;-60
2022/03/29 09:05:29;;;;;;;44.38;12.55;;;14.80;61.50;;;;;;5090658;27;20023;-60
2022/03/29 09:07:59;;;;;;;47.83;12.50;;;14.80;61.40;;;;;;5121788;27;20119;-60
2022/03/29 09:10:44;;;;;;;38.70;11.65;;;14.80;61.30;;;;;;5120278;27;20106;-59
2022/03/29 09:13:27;;;;;;;47.40;13.13;;;14.90;61.40;;;;;;5113936;27;20046;-60
2022/03/29 09:15:54;;;;;;;50.47;12.27;;;14.90;61.30;;;;;;5080098;28;20032;-60
2022/03/29 09:18:19;;;;;;;54.47;13.13;;;15.00;61.20;;;;;;5105605;27;20040;-60
2022/03/29 09:20:47;;;;;;;37.40;13.13;;;15.00;62.00;;;;;;5111275;27;20035;-60
2022/03/29 09:23:17;;;;;;;43.55;12.75;;;15.00;61.30;;;;;;5094605;28;20111;-59
2022/03/29 09:25:49;;;;;;;34.70;12.88;;;15.00;61.30;;;;;;5089581;28;20032;-60
2022/03/29 09:28:16;;;;;;;33.13;11.32;;;15.10;61.30;;;;;;5077966;28;20024;-60
2022/03/29 09:30:48;;;;;;;45.60;12.20;;;15.20;61.10;;;;;;5083329;28;20143;-60
2022/03/29 09:33:18;;;;;;;57.15;12.93;;;15.20;61.10;;;;;;5083668;28;20039;-60
2022/03/29 09:35:54;;;;;;;350.70;41.28;;;15.20;61.00;;;;;;5109771;27;20031;-60
2022/03/29 09:38:30;;;;;;;155.20;25.92;;;15.30;61.10;;;;;;5111521;27;20027;-60
2022/03/29 09:40:57;;;;;;;104.80;17.45;;;15.30;61.00;;;;;;5086339;28;20027;-60
2022/03/29 09:43:24;;;;;;;59.13;14.05;;;15.30;60.90;;;;;;5076277;27;20035;-60
2022/03/29 09:45:55;;;;;;;67.75;15.40;;;15.30;60.70;;;;;;5075936;28;20050;-60
2022/03/29 09:48:21;;;;;;;54.05;14.90;;;15.40;60.70;;;;;;5072421;28;20085;-60
2022/03/29 09:50:48;;;;;;;67.95;14.70;;;15.40;60.50;;;;;;5089970;28;20096;-59
2022/03/29 09:53:37;;;;;;;68.63;14.50;;;15.50;60.40;;;;;;5102135;27;20039;-62
2022/03/29 09:56:03;;;;;;;81.68;14.95;;;15.50;60.50;;;;;;5085871;27;20019;-60
2022/03/29 09:58:28;;;;;;;62.20;14.55;;;15.50;60.40;;;;;;5047776;28;20100;-61
2022/03/29 10:00:55;;;;;;;80.55;15.20;;;15.60;60.40;;;;;;5094113;28;20234;-60
2022/03/29 10:03:20;;;;;;;65.85;16.02;;;15.60;60.30;;;;;;5091920;28;20062;-60
2022/03/29 10:05:46;;;;;;;80.20;15.55;;;15.60;60.20;;;;;;5086202;27;20522;-60
2022/03/29 10:11:01;;;;;;;82.50;15.63;;;15.70;60.20;;;;;;5098430;27;20073;-60
2022/03/29 10:13:28;;;;;;;74.88;16.92;;;15.70;60.20;;;;;;5064361;28;20087;-60
2022/03/29 10:15:54;;;;;;;128.38;21.58;;;15.80;60.20;;;;;;5067590;28;20024;-60
2022/03/29 10:18:21;;;;;;;116.93;20.33;;;15.80;60.50;;;;;;5096788;28;20371;-60
2022/03/29 10:20:47;;;;;;;125.72;19.10;;;15.80;60.40;;;;;;5064995;28;20031;-61
2022/03/29 10:23:18;;;;;;;90.55;19.70;;;15.90;60.10;;;;;;5098752;27;20023;-60
2022/03/29 10:25:43;;;;;;;105.30;20.65;;;15.90;60.20;;;;;;5075831;28;20027;-60
2022/03/29 10:28:10;;;;;;;182.43;30.00;;;15.90;59.90;;;;;;5082264;27;20035;-61
2022/03/29 10:30:37;;;;;;;100.82;19.55;;;16.00;59.90;;;;;;5094409;27;20048;-60
2022/03/29 10:33:16;;;;;;;93.13;19.73;;;16.00;59.80;;;;;;5101850;27;20018;-61
2022/03/29 10:36:13;;;;;;;84.63;17.35;;;16.10;59.60;;;;;;5099515;27;20089;-61
2022/03/29 10:38:49;;;;;;;76.03;17.08;;;16.10;59.40;;;;;;5095358;27;20031;-61
2022/03/29 10:41:30;;;;;;;;;;;16.10;59.30;;;;;;5115584;27;20028;-60
2022/03/29 10:43:55;;;;;;;156.25;25.88;;;16.20;59.30;;;;;;5110179;27;20255;-60
2022/03/29 10:46:25;;;;;;;133.85;21.58;;;16.20;59.50;;;;;;5122295;27;20083;-60
2022/03/29 10:49:20;;;;;;;79.28;18.20;;;16.30;59.40;;;;;;5071657;27;20420;-61
2022/03/29 10:51:49;;;;;;;71.35;17.55;;;16.40;59.20;;;;;;5110323;27;20035;-62
2022/03/29 10:54:25;;;;;;;79.43;17.45;;;16.40;58.80;;;;;;5092716;27;20027;-63
2022/03/29 10:57:28;;;;;;;108.68;19.35;;;16.50;58.60;;;;;;5090298;28;20146;-61
2022/03/29 11:00:17;;;;;;;90.68;19.25;;;16.50;58.70;;;;;;5114306;27;20050;-61
2022/03/29 11:03:08;;;;;;;103.28;19.65;;;16.50;58.50;;;;;;5117536;27;20035;-61
2022/03/29 11:05:37;;;;;;;91.80;19.02;;;16.60;58.60;;;;;;5113114;27;20122;-64
2022/03/29 11:08:09;;;;;;;83.45;16.92;;;16.60;58.40;;;;;;5081227;27;20053;-60
2022/03/29 11:10:42;;;;;;;73.78;16.58;;;16.70;58.60;;;;;;5066238;28;20107;-61
2022/03/29 11:13:34;;;;;;;94.03;19.60;;;16.70;58.70;;;;;;5099863;27;20034;-60
2022/03/29 11:16:02;;;;;;;93.93;17.23;;;16.80;58.70;;;;;;5102930;27;20035;-61
2022/03/29 11:18:31;;;;;;;69.30;16.05;;;16.80;58.30;;;;;;5096765;27;20058;-61
2022/03/29 11:21:02;;;;;;;77.90;17.05;;;16.90;58.00;;;;;;5106551;27;20027;-61
2022/03/29 11:23:32;;;;;;;87.05;16.90;;;16.90;57.90;;;;;;5104817;27;20205;-61
2022/03/29 11:26:03;;;;;;;68.13;16.30;;;17.00;57.80;;;;;;5108031;27;20084;-60
2022/03/29 11:28:28;;;;;;;72.20;16.58;;;17.00;57.70;;;;;;5079642;28;20027;-61
2022/03/29 11:30:54;;;;;;;67.43;15.48;;;17.10;57.70;;;;;;5077963;27;20485;-61
2022/03/29 11:33:29;;;;;;;61.08;16.40;;;17.10;57.60;;;;;;5088509;27;20036;-60
2022/03/29 11:35:54;;;;;;;50.28;14.43;;;17.20;57.50;;;;;;5101268;27;20019;-61
2022/03/29 11:38:20;;;;;;;74.72;14.07;;;17.20;57.30;;;;;;5096324;27;20042;-61
2022/03/29 11:40:45;;;;;;;57.33;14.90;;;17.20;57.20;;;;;;5076765;28;20599;-61
2022/03/29 11:43:12;;;;;;;51.00;13.77;;;17.30;57.20;;;;;;5108967;27;20035;-60
2022/03/29 11:45:42;;;;;;;55.17;14.20;;;17.30;57.00;;;;;;5080714;27;20050;-60
2022/03/29 11:48:13;;;;;;;60.50;14.23;;;17.40;57.00;;;;;;5108357;27;20407;-61
2022/03/29 11:50:46;;;;;;;48.42;13.65;;;17.40;56.80;;;;;;5117636;27;20174;-61
2022/03/29 11:53:25;;;;;;;45.63;12.95;;;17.50;56.80;;;;;;5089975;27;20019;-61
2022/03/29 11:56:07;;;;;;;51.47;13.73;;;17.60;56.60;;;;;;5117629;27;20377;-60
2022/03/29 11:58:32;;;;;;;45.03;12.95;;;17.60;56.30;;;;;;5083697;27;20023;-61
2022/03/29 12:01:08;;;;;;;42.65;11.68;;;17.60;56.10;;;;;;5118862;27;20043;-61
2022/03/29 12:03:35;;;;;;;57.08;13.88;;;17.70;55.90;;;;;;5077929;27;20293;-61
2022/03/29 12:06:12;;;;;;;45.10;13.02;;;17.70;55.70;;;;;;5100506;27;20032;-61
2022/03/29 12:09:04;;;;;;;55.67;13.52;;;17.80;55.70;;;;;;5109749;27;20050;-61
2022/03/29 12:11:34;;;;;;;49.05;12.50;;;17.80;55.60;;;;;;5088081;27;20099;-61
2022/03/29 12:14:17;;;;;;;52.45;13.35;;;17.90;55.40;;;;;;5057718;28;20383;-61
2022/03/29 12:16:43;;;;;;;53.00;12.73;;;17.90;55.20;;;;;;5100761;27;20019;-62
2022/03/29 12:19:11;;;;;;;48.00;13.40;;;17.80;55.00;;;;;;5104236;27;20039;-61
2022/03/29 12:21:36;;;;;;;56.45;13.52;;;18.10;55.10;;;;;;5072714;28;20047;-60
2022/03/29 12:24:07;;;;;;;37.45;10.75;;;18.10;55.10;;;;;;5087703;28;20043;-61
2022/03/29 12:26:33;;;;;;;42.05;11.68;;;18.20;55.30;;;;;;5081884;28;20479;-60
2022/03/29 12:28:59;;;;;;;48.40;12.40;;;18.20;55.30;;;;;;5081663;28;20081;-61
2022/03/29 12:31:27;;;;;;;51.15;12.20;;;18.20;55.10;;;;;;5097611;27;20050;-61
2022/03/29 12:33:53;;;;;;;45.72;12.18;;;18.30;55.40;;;;;;5087785;27;20020;-61
2022/03/29 12:36:19;;;;;;;43.67;11.63;;;18.30;55.30;;;;;;5102058;27;20358;-61
2022/03/29 12:38:48;;;;;;;43.30;11.98;;;18.40;55.30;;;;;;5072515;28;20056;-60
2022/03/29 12:41:34;;;;;;;45.40;11.60;;;18.40;55.30;;;;;;5097152;27;20032;-61